createdAt,value
2024-03-05T00:01:00.400Z,100.00
2024-03-05T00:06:11.724Z,100.00
2024-03-05T00:11:17.480Z,100.00
2024-03-05T00:16:23.073Z,100.00
2024-03-05T00:21:32.625Z,100.00
2024-03-05T00:26:38.340Z,100.00
2024-03-05T00:31:44.300Z,100.00
2024-03-05T00:36:55.195Z,100.00
2024-03-05T00:42:00.793Z,100.00
2024-03-05T00:47:06.161Z,100.00
2024-03-05T00:52:13.954Z,100.00
2024-03-05T00:57:19.320Z,100.00
2024-03-05T01:02:27.362Z,100.00
2024-03-05T01:07:35.351Z,100.00
2024-03-05T01:12:42.650Z,100.00
2024-03-05T01:17:49.107Z,100.00
2024-03-05T01:22:56.997Z,100.00
2024-03-05T01:28:02.250Z,100.00
2024-03-05T01:33:21.441Z,100.00
2024-03-05T01:38:29.780Z,100.00
2024-03-05T01:43:36.985Z,100.00
2024-03-05T01:48:42.173Z,100.00
2024-03-05T01:53:52.284Z,100.00
2024-03-05T01:59:01.572Z,100.00
2024-03-05T02:04:07.742Z,100.00
2024-03-05T02:09:23.132Z,100.00
2024-03-05T02:14:29.537Z,100.00
2024-03-05T02:19:35.255Z,100.00
2024-03-05T02:24:50.626Z,100.00
2024-03-05T02:30:01.134Z,100.00
2024-03-05T02:35:06.769Z,100.00
2024-03-05T02:40:27.134Z,100.00
2024-03-05T02:45:32.796Z,100.00
2024-03-05T02:50:40.030Z,100.00
2024-03-05T02:55:51.383Z,100.00
2024-03-05T03:00:56.954Z,100.00
2024-03-05T03:06:06.910Z,100.00
2024-03-05T03:11:18.927Z,100.00
2024-03-05T03:16:36.029Z,100.00
2024-03-05T03:21:45.460Z,100.00
2024-03-05T04:36:24.405Z,100.00
2024-03-05T04:47:35.657Z,100.00
2024-03-05T05:33:36.902Z,100.00
2024-03-05T05:38:42.055Z,100.00
2024-03-05T05:43:47.217Z,100.00
2024-03-05T05:48:55.974Z,100.00
2024-03-05T05:54:02.079Z,100.00
2024-03-05T05:59:09.554Z,100.00
2024-03-05T06:04:19.492Z,100.00
2024-03-05T06:09:29.708Z,100.00
2024-03-05T06:14:36.242Z,100.00
2024-03-05T06:19:45.235Z,100.00
2024-03-05T06:24:51.184Z,100.00
2024-03-05T06:30:03.507Z,100.00
2024-03-05T06:35:42.161Z,100.00
2024-03-05T06:40:57.676Z,100.00
2024-03-05T06:46:12.544Z,100.00
2024-03-05T06:51:28.558Z,100.00
2024-03-05T06:56:46.212Z,100.00
2024-03-05T07:01:58.331Z,100.00
2024-03-05T07:07:21.296Z,100.00
2024-03-05T07:12:33.170Z,100.00
2024-03-05T07:17:40.292Z,100.00
2024-03-05T07:22:49.124Z,100.00
2024-03-05T07:28:00.068Z,100.00
2024-03-05T07:33:05.375Z,100.00
2024-03-05T07:38:13.584Z,91.26
2024-03-05T07:43:29.211Z,92.04
2024-03-05T07:49:07.440Z,94.62
2024-03-05T07:54:18.540Z,91.58
2024-03-05T07:59:54.915Z,82.21
2024-03-05T08:05:19.995Z,89.96
2024-03-05T08:10:30.281Z,93.50
2024-03-05T08:15:36.168Z,93.07
2024-03-05T08:20:44.852Z,95.81
2024-03-05T08:26:00.693Z,93.50
2024-03-05T08:31:09.652Z,93.11
2024-03-05T08:36:19.684Z,92.67
2024-03-05T08:41:35.966Z,93.15
2024-03-05T08:46:45.644Z,92.28
2024-03-05T08:51:53.121Z,94.31
2024-03-05T08:57:01.599Z,93.58
2024-03-05T09:02:26.005Z,94.88
2024-03-05T09:12:57.187Z,94.26
2024-03-05T09:18:20.576Z,92.35
2024-03-05T09:29:01.030Z,90.87
2024-03-05T09:34:06.517Z,94.10
2024-03-05T09:39:12.211Z,95.99
2024-03-05T09:44:20.711Z,95.47
2024-03-05T09:49:27.426Z,94.99
2024-03-05T09:54:35.949Z,93.17
2024-03-05T09:59:53.221Z,93.46
2024-03-05T10:05:04.559Z,92.48
2024-03-05T10:10:17.660Z,93.69
2024-03-05T10:15:57.839Z,92.31
2024-03-05T10:21:20.253Z,94.46
2024-03-05T10:26:28.936Z,97.58
2024-03-05T10:31:35.276Z,97.67
2024-03-05T10:36:49.093Z,96.19
2024-03-05T10:42:01.176Z,94.98
2024-03-05T10:47:08.140Z,93.06
2024-03-05T10:52:23.892Z,93.17
2024-03-05T10:57:30.449Z,92.99
2024-03-05T11:02:36.168Z,93.70
2024-03-05T11:07:44.018Z,93.47
2024-03-05T11:12:49.574Z,90.27
2024-03-05T11:17:54.992Z,89.23
2024-03-05T11:23:13.103Z,87.43
2024-03-05T11:28:20.569Z,88.30
2024-03-05T11:33:28.205Z,88.51
2024-03-05T11:38:57.287Z,88.88
2024-03-05T11:49:50.904Z,86.02
2024-03-05T11:55:07.418Z,87.53
2024-03-05T12:00:21.159Z,88.12
2024-03-05T12:06:23.438Z,87.50
2024-03-05T12:11:36.885Z,84.74
2024-03-05T12:22:20.746Z,85.96
2024-03-05T12:27:30.602Z,86.87
2024-03-05T12:33:32.018Z,85.70
2024-03-05T12:38:43.672Z,85.69
2024-03-05T12:43:57.836Z,88.55
2024-03-05T12:49:03.229Z,90.19
2024-03-05T12:54:12.754Z,90.41
2024-03-05T12:59:26.404Z,91.29
2024-03-05T13:04:34.535Z,91.42
2024-03-05T13:09:43.271Z,91.08
2024-03-05T13:14:53.371Z,90.48
2024-03-05T13:19:58.831Z,90.94
2024-03-05T13:25:07.579Z,89.91
2024-03-05T13:30:18.370Z,89.98
2024-03-05T13:35:24.526Z,90.19
2024-03-05T13:40:34.318Z,90.63
2024-03-05T13:45:42.465Z,90.14
2024-03-05T13:50:53.791Z,89.04
2024-03-05T13:55:59.135Z,88.47
2024-03-05T14:01:10.479Z,87.16
2024-03-05T14:06:26.976Z,85.48
2024-03-05T14:11:36.559Z,80.52
2024-03-05T14:16:44.306Z,74.77
2024-03-05T14:21:49.599Z,73.60
2024-03-05T14:26:55.285Z,73.89
2024-03-05T14:32:06.418Z,74.52
2024-03-05T14:37:12.066Z,74.86
2024-03-05T14:42:26.068Z,76.07
2024-03-05T14:53:21.651Z,74.89
2024-03-05T14:58:35.736Z,74.63
2024-03-05T15:09:21.576Z,77.55
2024-03-05T15:14:29.413Z,78.53
2024-03-05T15:19:36.428Z,78.05
2024-03-05T15:24:45.433Z,77.83
2024-03-05T15:29:51.542Z,77.91
2024-03-05T15:35:09.214Z,77.96
2024-03-05T15:51:57.238Z,77.61
2024-03-05T16:09:01.479Z,78.50
2024-03-05T16:14:10.536Z,78.41
2024-03-05T16:19:16.134Z,78.02
2024-03-05T16:24:26.842Z,78.79
2024-03-05T16:29:32.310Z,79.55
2024-03-05T16:34:38.486Z,80.86
2024-03-05T16:39:48.730Z,81.39
2024-03-05T16:44:54.271Z,82.64
2024-03-05T16:50:01.543Z,83.07
2024-03-05T16:55:11.257Z,82.75
2024-03-05T17:00:24.728Z,83.84
2024-03-05T17:05:35.220Z,83.96
2024-03-05T17:10:45.864Z,82.86
2024-03-05T17:15:56.531Z,83.09
2024-03-05T17:21:02.838Z,83.46
2024-03-05T17:26:11.388Z,84.08
2024-03-05T17:31:16.925Z,83.34
2024-03-05T17:36:22.730Z,82.46
2024-03-05T17:41:31.046Z,82.38
2024-03-05T17:46:39.283Z,81.90
2024-03-05T17:51:44.719Z,82.84
2024-03-05T17:56:52.550Z,82.31
2024-03-05T18:01:59.156Z,82.90
2024-03-05T18:07:09.730Z,83.64
2024-03-05T18:12:18.856Z,84.95
2024-03-05T18:17:24.279Z,85.81
2024-03-05T18:22:30.474Z,86.11
2024-03-05T18:27:38.125Z,86.00
2024-03-05T18:32:43.148Z,85.61
2024-03-05T18:37:49.218Z,85.10
2024-03-05T18:42:58.487Z,86.10
2024-03-05T18:48:09.625Z,86.78
2024-03-05T18:53:17.542Z,86.19
2024-03-05T18:58:25.545Z,84.47
2024-03-05T19:03:30.720Z,85.17
2024-03-05T19:08:36.068Z,85.16
2024-03-05T19:13:45.970Z,86.33
2024-03-05T19:18:54.040Z,87.99
2024-03-05T19:23:59.771Z,90.41
2024-03-05T19:29:08.054Z,91.88
2024-03-05T19:34:15.155Z,92.15
2024-03-05T19:39:20.746Z,91.92
2024-03-05T19:44:29.052Z,93.32
2024-03-05T19:49:36.678Z,94.06
2024-03-05T19:54:45.907Z,94.44
2024-03-05T19:59:57.549Z,95.25
2024-03-05T20:05:04.422Z,95.97
2024-03-05T20:10:10.588Z,97.05
2024-03-05T20:15:19.264Z,97.48
2024-03-05T20:20:26.065Z,97.49
2024-03-05T20:25:31.952Z,97.72
2024-03-05T20:30:41.011Z,98.85
2024-03-05T20:35:47.416Z,99.75
2024-03-05T20:40:53.264Z,99.97
2024-03-05T20:46:01.012Z,99.76
2024-03-05T20:51:06.409Z,100.00
2024-03-05T20:56:12.329Z,100.00
2024-03-05T21:01:20.172Z,100.00
2024-03-05T21:06:25.710Z,100.00
2024-03-05T21:11:31.130Z,100.00
2024-03-05T21:16:40.137Z,100.00
2024-03-05T21:21:47.814Z,100.00
2024-03-05T21:27:09.472Z,100.00
2024-03-05T21:32:21.318Z,100.00
2024-03-05T21:37:29.523Z,100.00
2024-03-05T21:42:35.091Z,100.00
2024-03-05T21:47:43.662Z,100.00
2024-03-05T21:52:51.432Z,100.00
2024-03-05T21:57:56.917Z,100.00
2024-03-05T22:03:05.464Z,100.00
2024-03-05T22:08:11.563Z,100.00
2024-03-05T22:13:18.526Z,100.00
2024-03-05T22:18:26.858Z,100.00
2024-03-05T22:23:33.304Z,100.00
2024-03-05T22:28:39.135Z,100.00
2024-03-05T22:33:48.040Z,100.00
2024-03-05T22:38:54.320Z,100.00
2024-03-05T22:43:59.883Z,100.00
2024-03-05T22:49:08.219Z,100.00
2024-03-05T22:54:18.178Z,100.00
2024-03-05T22:59:23.890Z,100.00
2024-03-05T23:09:55.480Z,100.00
2024-03-05T23:15:01.398Z,100.00
2024-03-05T23:20:12.171Z,100.00
2024-03-05T23:25:17.763Z,100.00
2024-03-05T23:30:23.399Z,100.00
2024-03-05T23:35:31.750Z,100.00
2024-03-05T23:40:37.629Z,100.00
2024-03-05T23:45:43.588Z,100.00
2024-03-05T23:50:51.637Z,100.00
2024-03-05T23:55:57.220Z,100.00
